createdAt,value
2017-11-14T00:00:56.659Z,8.63
2017-11-14T00:03:24.172Z,8.00
2017-11-14T00:05:51.700Z,8.65
2017-11-14T00:08:19.212Z,8.88
2017-11-14T00:10:47.503Z,8.50
2017-11-14T00:13:15.005Z,8.63
2017-11-14T00:15:42.524Z,8.35
2017-11-14T00:18:10.020Z,7.20
2017-11-14T00:20:37.548Z,9.00
2017-11-14T00:23:05.059Z,8.30
2017-11-14T00:25:32.589Z,9.07
2017-11-14T00:28:00.088Z,7.53
2017-11-14T00:30:27.620Z,9.45
2017-11-14T00:32:55.133Z,8.20
2017-11-14T00:35:23.406Z,8.60
2017-11-14T00:37:51.700Z,8.35
2017-11-14T00:40:19.223Z,8.13
2017-11-14T00:42:46.751Z,8.55
2017-11-14T00:45:14.255Z,8.48
2017-11-14T00:47:42.541Z,8.30
2017-11-14T00:50:10.051Z,8.02
2017-11-14T00:52:37.567Z,9.20
2017-11-14T00:55:05.068Z,8.50
2017-11-14T00:57:32.597Z,7.95
2017-11-14T01:00:00.102Z,8.60
2017-11-14T01:02:27.620Z,8.13
2017-11-14T01:04:55.132Z,8.70
2017-11-14T01:07:23.423Z,7.80
2017-11-14T01:09:51.683Z,8.75
2017-11-14T01:12:19.204Z,9.00
2017-11-14T01:14:46.716Z,8.50
2017-11-14T01:17:15.008Z,7.22
2017-11-14T01:19:42.513Z,8.65
2017-11-14T01:22:10.024Z,7.97
2017-11-14T01:24:37.536Z,9.02
2017-11-14T01:27:05.060Z,8.38
2017-11-14T01:29:32.565Z,8.75
2017-11-14T01:32:00.098Z,8.30
2017-11-14T01:34:27.638Z,7.70
2017-11-14T01:36:55.141Z,9.45
2017-11-14T01:39:22.669Z,8.60
2017-11-14T01:41:50.183Z,7.78
2017-11-14T01:44:18.468Z,8.35
2017-11-14T01:46:45.972Z,8.55
2017-11-14T01:49:13.492Z,8.30
2017-11-14T01:51:40.994Z,8.35
2017-11-14T01:54:08.511Z,8.60
2017-11-14T01:56:36.028Z,7.60
2017-11-14T01:59:03.550Z,8.30
2017-11-14T02:01:31.056Z,10.10
2017-11-14T02:03:58.583Z,8.80
2017-11-14T02:06:26.088Z,9.10
2017-11-14T02:08:53.637Z,8.25
2017-11-14T02:11:21.142Z,9.05
2017-11-14T02:13:48.663Z,7.70
2017-11-14T02:16:16.935Z,9.25
2017-11-14T02:18:45.228Z,8.45
2017-11-14T02:21:12.740Z,8.98
2017-11-14T02:23:40.284Z,9.20
2017-11-14T02:26:07.798Z,9.20
2017-11-14T02:28:36.072Z,8.45
2017-11-14T02:31:04.361Z,8.43
2017-11-14T02:33:31.878Z,9.20
2017-11-14T02:35:59.397Z,8.10
2017-11-14T02:38:26.901Z,9.63
2017-11-14T02:40:54.420Z,9.30
2017-11-14T02:43:23.677Z,9.93
2017-11-14T02:45:51.969Z,9.40
2017-11-14T02:48:19.471Z,8.18
2017-11-14T02:50:46.989Z,7.75
2017-11-14T02:53:15.265Z,8.77
2017-11-14T02:55:43.551Z,8.40
2017-11-14T02:58:11.072Z,8.27
2017-11-14T03:00:38.592Z,9.27
2017-11-14T03:03:06.101Z,8.13
2017-11-14T03:05:34.415Z,8.30
2017-11-14T03:08:01.923Z,8.43
2017-11-14T03:10:29.451Z,8.60
2017-11-14T03:12:56.971Z,8.45
2017-11-14T03:15:25.260Z,8.88
2017-11-14T03:17:52.774Z,8.57
2017-11-14T03:20:20.308Z,9.23
2017-11-14T03:22:47.817Z,9.02
2017-11-14T03:25:16.096Z,8.50
2017-11-14T03:27:44.388Z,8.80
2017-11-14T03:30:11.912Z,8.50
2017-11-14T03:32:39.489Z,8.45
2017-11-14T03:35:07.764Z,8.48
2017-11-14T03:37:36.043Z,8.45
2017-11-14T03:40:04.374Z,8.88
2017-11-14T03:42:31.909Z,7.87
2017-11-14T03:44:59.411Z,9.77
2017-11-14T03:47:26.932Z,9.27
2017-11-14T03:49:54.441Z,8.00
2017-11-14T03:52:21.975Z,9.50
2017-11-14T03:54:49.475Z,8.93
2017-11-14T03:57:17.757Z,8.82
2017-11-14T03:59:46.027Z,9.52
2017-11-14T04:02:14.307Z,9.00
2017-11-14T04:04:42.575Z,9.75
2017-11-14T04:07:10.874Z,8.95
2017-11-14T04:09:38.384Z,9.52
2017-11-14T04:12:05.917Z,9.15
2017-11-14T04:14:33.429Z,8.70
2017-11-14T04:17:01.724Z,9.07
2017-11-14T04:19:29.990Z,8.73
2017-11-14T04:21:58.307Z,8.43
2017-11-14T04:24:25.825Z,9.45
2017-11-14T04:26:54.091Z,10.10
2017-11-14T04:29:21.612Z,10.00
2017-11-14T04:31:49.123Z,10.38
2017-11-14T04:34:17.421Z,10.63
2017-11-14T04:36:44.937Z,10.38
2017-11-14T04:39:12.454Z,9.57
2017-11-14T04:41:39.959Z,10.90
2017-11-14T04:44:07.480Z,9.95
2017-11-14T04:46:35.000Z,9.90
2017-11-14T04:49:02.527Z,10.80
2017-11-14T04:51:30.035Z,9.38
2017-11-14T04:53:57.571Z,10.98
2017-11-14T04:56:25.840Z,11.88
2017-11-14T04:58:54.136Z,10.73
2017-11-14T05:01:22.402Z,12.80
2017-11-14T05:03:51.103Z,12.57
2017-11-14T05:06:18.616Z,12.15
2017-11-14T05:08:46.144Z,11.85
2017-11-14T05:11:13.651Z,11.65
2017-11-14T05:13:41.172Z,12.27
2017-11-14T05:16:08.684Z,11.85
2017-11-14T05:18:36.985Z,13.82
2017-11-14T05:21:04.496Z,12.90
2017-11-14T05:23:32.004Z,13.77
2017-11-14T05:25:59.531Z,12.20
2017-11-14T05:28:27.807Z,12.63
2017-11-14T05:30:55.337Z,11.48
2017-11-14T05:33:22.855Z,12.60
2017-11-14T05:35:50.393Z,11.85
2017-11-14T05:38:18.681Z,11.48
2017-11-14T05:40:46.964Z,12.57
2017-11-14T05:43:14.483Z,12.43
2017-11-14T05:45:42.003Z,12.68
2017-11-14T05:48:09.519Z,11.43
2017-11-14T05:50:37.812Z,11.98
2017-11-14T05:53:06.080Z,12.55
2017-11-14T05:55:34.392Z,12.80
2017-11-14T05:58:01.909Z,12.70
2017-11-14T06:00:30.223Z,12.73
2017-11-14T06:02:57.746Z,13.80
2017-11-14T06:05:25.312Z,13.13
2017-11-14T06:07:52.827Z,12.10
2017-11-14T06:10:20.349Z,13.68
2017-11-14T06:12:47.859Z,12.40
2017-11-14T06:15:15.384Z,11.90
2017-11-14T06:17:42.895Z,11.57
2017-11-14T06:20:10.427Z,12.65
2017-11-14T06:22:37.935Z,13.43
2017-11-14T06:25:06.259Z,13.45
2017-11-14T06:27:33.776Z,13.18
2017-11-14T06:30:01.278Z,12.70
2017-11-14T06:32:28.800Z,13.02
2017-11-14T06:34:56.301Z,12.98
2017-11-14T06:37:23.847Z,12.75
2017-11-14T06:39:51.356Z,12.75
2017-11-14T06:42:19.656Z,12.98
2017-11-14T06:44:47.156Z,16.10
2017-11-14T06:47:14.668Z,14.68
2017-11-14T06:49:42.176Z,12.93
2017-11-14T06:52:09.696Z,13.75
2017-11-14T06:54:37.220Z,12.10
2017-11-14T06:57:05.510Z,13.82
2017-11-14T06:59:33.791Z,11.70
2017-11-14T07:02:01.322Z,13.65
2017-11-14T07:04:28.829Z,12.85
2017-11-14T07:06:56.367Z,12.32
2017-11-14T07:09:24.645Z,12.70
2017-11-14T07:11:52.192Z,11.45
2017-11-14T07:14:20.484Z,11.80
2017-11-14T07:16:48.659Z,10.88
2017-11-14T07:19:16.184Z,11.50
2017-11-14T07:21:43.729Z,12.63
2017-11-14T07:24:11.293Z,12.32
2017-11-14T07:26:38.796Z,11.10
2017-11-14T07:29:06.323Z,12.73
2017-11-14T07:31:33.840Z,12.13
2017-11-14T07:34:01.370Z,11.77
2017-11-14T07:36:28.905Z,12.30
2017-11-14T07:38:56.464Z,10.90
2017-11-14T07:41:23.988Z,12.10
2017-11-14T07:43:51.519Z,9.95
2017-11-14T07:46:19.046Z,9.80
2017-11-14T07:48:47.344Z,11.55
2017-11-14T07:51:15.620Z,11.50
2017-11-14T07:53:43.926Z,11.50
2017-11-14T07:56:11.427Z,11.55
2017-11-14T07:58:38.957Z,11.32
2017-11-14T08:01:06.477Z,10.60
2017-11-14T08:03:34.764Z,11.60
2017-11-14T08:06:02.289Z,11.30
2017-11-14T08:08:29.823Z,12.37
2017-11-14T08:10:57.329Z,11.70
2017-11-14T08:13:24.856Z,11.35
2017-11-14T08:15:52.357Z,11.73
2017-11-14T08:18:19.900Z,12.02
2017-11-14T08:20:48.183Z,11.43
2017-11-14T08:23:16.467Z,12.75
2017-11-14T08:25:44.005Z,12.18
2017-11-14T08:28:11.511Z,12.25
2017-11-14T08:30:39.037Z,12.00
2017-11-14T08:33:07.300Z,11.95
2017-11-14T08:35:35.587Z,11.27
2017-11-14T08:38:03.868Z,11.18
2017-11-14T08:40:32.166Z,11.90
2017-11-14T08:42:59.684Z,11.27
2017-11-14T08:45:28.171Z,11.68
2017-11-14T08:47:55.680Z,11.45
2017-11-14T08:50:23.212Z,10.82
2017-11-14T08:52:50.732Z,11.25
2017-11-14T08:55:18.272Z,12.20
2017-11-14T08:57:45.777Z,12.45
2017-11-14T09:00:14.064Z,11.15
2017-11-14T09:02:42.336Z,12.77
2017-11-14T09:05:10.629Z,12.48
2017-11-14T09:07:38.131Z,11.68
2017-11-14T09:10:05.646Z,12.23
2017-11-14T09:12:34.096Z,12.43
2017-11-14T09:15:02.413Z,12.90
2017-11-14T09:17:29.937Z,12.80
2017-11-14T09:19:58.218Z,12.73
2017-11-14T09:22:26.521Z,12.25
2017-11-14T09:24:54.025Z,12.80
2017-11-14T09:27:24.160Z,11.63
2017-11-14T09:29:51.672Z,12.23
2017-11-14T09:32:19.193Z,14.63
2017-11-14T09:34:47.472Z,13.07
2017-11-14T09:37:15.766Z,13.95
2017-11-14T09:39:43.272Z,14.48
2017-11-14T09:42:10.800Z,14.38
2017-11-14T09:44:38.312Z,13.75
2017-11-14T09:47:05.841Z,13.93
2017-11-14T09:49:33.358Z,13.90
2017-11-14T09:52:00.897Z,14.30
2017-11-14T09:54:29.172Z,12.57
2017-11-14T09:56:57.486Z,13.57
2017-11-14T09:59:25.000Z,13.93
2017-11-14T10:01:52.541Z,13.90
2017-11-14T10:04:21.044Z,13.35
2017-11-14T10:06:48.582Z,13.38
2017-11-14T10:09:16.109Z,13.05
2017-11-14T10:11:43.732Z,12.70
2017-11-14T10:14:12.977Z,13.35
2017-11-14T10:16:40.705Z,13.60
2017-11-14T10:19:08.999Z,15.18
2017-11-14T10:21:36.560Z,13.55
2017-11-14T10:24:04.088Z,14.07
2017-11-14T10:26:31.615Z,13.80
2017-11-14T10:28:59.169Z,13.70
2017-11-14T10:31:26.685Z,14.20
2017-11-14T10:33:54.211Z,14.85
2017-11-14T10:36:21.741Z,14.25
2017-11-14T10:38:49.266Z,12.85
2017-11-14T10:41:16.861Z,12.85
2017-11-14T10:43:45.156Z,13.80
2017-11-14T10:46:12.719Z,13.07
2017-11-14T10:48:40.266Z,13.27
2017-11-14T10:51:07.788Z,12.88
2017-11-14T10:53:35.313Z,14.85
2017-11-14T10:56:02.842Z,13.40
2017-11-14T10:58:30.363Z,15.95
2017-11-14T11:00:57.890Z,14.75
2017-11-14T11:03:26.200Z,14.75
2017-11-14T11:05:53.722Z,15.38
2017-11-14T11:08:21.341Z,16.00
2017-11-14T11:10:49.628Z,15.93
2017-11-14T11:13:17.146Z,16.25
2017-11-14T11:15:45.436Z,16.42
2017-11-14T11:18:12.954Z,17.58
2017-11-14T11:20:40.483Z,15.65
2017-11-14T11:23:07.999Z,15.82
2017-11-14T11:25:35.533Z,15.82
2017-11-14T11:28:03.041Z,15.95
2017-11-14T11:30:30.572Z,16.10
2017-11-14T11:32:58.847Z,16.80
2017-11-14T11:35:27.141Z,16.08
2017-11-14T11:37:54.827Z,15.50
2017-11-14T11:40:23.196Z,14.15
2017-11-14T11:42:50.713Z,14.65
2017-11-14T11:45:19.008Z,15.82
2017-11-14T11:47:47.279Z,14.48
2017-11-14T11:50:15.569Z,14.48
2017-11-14T11:52:43.077Z,14.30
2017-11-14T11:55:10.612Z,13.88
2017-11-14T11:57:38.129Z,14.38
2017-11-14T12:00:06.424Z,14.90
2017-11-14T12:02:34.697Z,12.85
2017-11-14T12:05:03.020Z,13.15
2017-11-14T12:07:30.532Z,12.60
2017-11-14T12:09:58.049Z,14.45
2017-11-14T12:12:25.580Z,14.10
2017-11-14T12:14:53.103Z,13.05
2017-11-14T12:17:21.392Z,15.15
2017-11-14T12:19:48.912Z,14.73
2017-11-14T12:22:16.443Z,15.30
2017-11-14T12:24:43.961Z,13.93
2017-11-14T12:27:12.253Z,14.15
2017-11-14T12:29:39.764Z,14.00
2017-11-14T12:32:07.301Z,15.55
2017-11-14T12:34:34.816Z,14.90
2017-11-14T12:37:03.112Z,14.35
2017-11-14T12:39:30.641Z,15.27
2017-11-14T12:41:58.936Z,15.77
2017-11-14T12:44:27.212Z,13.23
2017-11-14T12:46:55.513Z,15.52
2017-11-14T12:49:23.020Z,14.82
2017-11-14T12:51:50.554Z,15.02
2017-11-14T12:54:18.070Z,15.70
2017-11-14T12:56:45.633Z,16.37
2017-11-14T12:59:13.140Z,14.93
2017-11-14T13:01:40.708Z,14.25
2017-11-14T13:04:08.237Z,16.27
2017-11-14T13:06:35.749Z,15.52
2017-11-14T13:09:04.036Z,16.45
2017-11-14T13:11:32.323Z,16.90
2017-11-14T13:13:59.848Z,16.02
2017-11-14T13:16:27.360Z,16.92
2017-11-14T13:18:54.888Z,16.75
2017-11-14T13:21:22.405Z,16.45
2017-11-14T13:23:50.043Z,17.67
2017-11-14T13:26:17.557Z,16.98
2017-11-14T13:28:45.093Z,18.67
2017-11-14T13:31:12.604Z,17.23
2017-11-14T13:33:40.136Z,17.90
2017-11-14T13:36:07.650Z,17.85
2017-11-14T13:38:35.207Z,18.40
2017-11-14T13:41:02.720Z,17.98
2017-11-14T13:43:31.028Z,16.83
2017-11-14T13:45:58.542Z,18.37
2017-11-14T13:48:26.080Z,18.25
2017-11-14T13:50:53.584Z,19.05
2017-11-14T13:53:21.104Z,17.37
2017-11-14T13:55:48.605Z,18.55
2017-11-14T13:58:16.921Z,17.60
2017-11-14T14:00:44.437Z,16.10
2017-11-14T14:03:11.956Z,17.20
2017-11-14T14:05:39.487Z,18.60
2017-11-14T14:08:06.989Z,17.73
2017-11-14T14:10:34.525Z,17.37
2017-11-14T14:13:02.037Z,17.52
2017-11-14T14:15:29.572Z,18.77
2017-11-14T14:17:57.095Z,19.45
2017-11-14T14:20:24.656Z,18.42
2017-11-14T14:22:52.176Z,18.33
2017-11-14T14:25:20.456Z,20.05
2017-11-14T14:27:47.961Z,20.27
2017-11-14T14:30:15.487Z,20.10
2017-11-14T14:32:43.053Z,20.00
2017-11-14T14:35:11.350Z,19.58
2017-11-14T14:37:38.859Z,21.10
2017-11-14T14:40:06.384Z,19.12
2017-11-14T14:42:33.896Z,22.05
2017-11-14T14:45:01.416Z,22.50
2017-11-14T14:47:28.919Z,19.67
2017-11-14T14:49:56.464Z,20.40
2017-11-14T14:52:24.788Z,21.30
2017-11-14T14:54:53.219Z,20.70
2017-11-14T14:57:20.737Z,18.83
2017-11-14T14:59:48.252Z,18.70
2017-11-14T15:02:15.789Z,18.27
2017-11-14T15:04:43.324Z,19.35
2017-11-14T15:07:10.852Z,18.15
2017-11-14T15:09:38.372Z,17.73
2017-11-14T15:12:05.937Z,16.75
2017-11-14T15:14:33.460Z,20.27
2017-11-14T15:17:00.984Z,17.80
2017-11-14T15:19:28.509Z,18.17
2017-11-14T15:21:56.045Z,18.33
2017-11-14T15:24:23.556Z,18.67
2017-11-14T15:26:51.093Z,17.90
2017-11-14T15:29:18.605Z,18.23
2017-11-14T15:31:46.131Z,19.45
2017-11-14T15:34:13.648Z,18.77
2017-11-14T15:36:41.948Z,18.30
2017-11-14T15:39:09.468Z,18.02
2017-11-14T15:41:36.992Z,16.80
2017-11-14T15:44:04.514Z,18.55
2017-11-14T15:46:32.052Z,17.23
2017-11-14T15:48:59.549Z,18.12
2017-11-14T15:51:27.082Z,16.30
2017-11-14T15:53:55.370Z,15.95
2017-11-14T15:56:23.658Z,15.52
2017-11-14T15:58:51.205Z,16.67
2017-11-14T16:01:19.469Z,17.80
2017-11-14T16:03:46.989Z,16.70
2017-11-14T16:06:14.523Z,17.42
2017-11-14T16:08:42.039Z,16.60
2017-11-14T16:11:09.545Z,16.50
2017-11-14T16:13:37.079Z,20.00
2017-11-14T16:16:04.589Z,18.83
2017-11-14T16:18:32.124Z,17.70
2017-11-14T16:20:59.637Z,17.40
2017-11-14T16:23:27.952Z,19.40
2017-11-14T16:25:55.461Z,20.12
2017-11-14T16:28:22.983Z,19.85
2017-11-14T16:30:50.487Z,18.87
2017-11-14T16:33:18.004Z,20.45
2017-11-14T16:35:45.521Z,20.90
2017-11-14T16:38:13.809Z,20.45
2017-11-14T16:40:42.087Z,20.88
2017-11-14T16:43:09.615Z,22.37
2017-11-14T16:45:37.115Z,21.85
2017-11-14T16:48:04.641Z,23.12
2017-11-14T16:50:32.155Z,22.83
2017-11-14T16:52:59.681Z,23.75
2017-11-14T16:55:27.953Z,24.27
2017-11-14T16:57:56.236Z,22.55
2017-11-14T17:00:24.528Z,23.92
2017-11-14T17:02:52.042Z,22.73
2017-11-14T17:05:19.567Z,22.17
2017-11-14T17:07:47.072Z,22.13
2017-11-14T17:10:15.372Z,23.42
2017-11-14T17:12:42.897Z,19.45
2017-11-14T17:15:10.421Z,20.02
2017-11-14T17:17:38.696Z,18.50
2017-11-14T17:20:06.238Z,17.35
2017-11-14T17:22:33.752Z,16.42
2017-11-14T17:25:01.284Z,15.77
2017-11-14T17:27:28.801Z,17.25
2017-11-14T17:29:56.329Z,15.40
2017-11-14T17:32:23.837Z,15.90
2017-11-14T17:34:51.368Z,15.07
2017-11-14T17:37:19.641Z,14.23
2017-11-14T17:39:47.939Z,15.23
2017-11-14T17:42:15.456Z,14.98
2017-11-14T17:44:42.993Z,15.07
2017-11-14T17:47:10.501Z,15.90
2017-11-14T17:49:38.838Z,17.17
2017-11-14T17:52:06.343Z,14.30
2017-11-14T17:54:34.613Z,16.25
2017-11-14T17:57:04.832Z,13.90
2017-11-14T17:59:33.107Z,15.00
2017-11-14T18:02:00.655Z,14.65
2017-11-14T18:04:28.945Z,15.38
2017-11-14T18:06:57.233Z,14.00
2017-11-14T18:09:25.519Z,14.57
2017-11-14T18:11:53.040Z,16.35
2017-11-14T18:14:20.554Z,15.82
2017-11-14T18:16:48.080Z,17.05
2017-11-14T18:19:16.356Z,16.10
2017-11-14T18:21:44.681Z,15.38
2017-11-14T18:24:12.192Z,14.75
2017-11-14T18:26:39.747Z,16.00
2017-11-14T18:29:07.260Z,18.48
2017-11-14T18:31:34.780Z,16.35
2017-11-14T18:34:02.278Z,15.25
2017-11-14T18:36:29.812Z,16.65
2017-11-14T18:38:57.349Z,15.80
2017-11-14T18:41:24.926Z,15.70
2017-11-14T18:43:52.494Z,15.52
2017-11-14T18:46:20.050Z,15.40
2017-11-14T18:48:47.579Z,16.62
2017-11-14T18:51:15.172Z,17.50
2017-11-14T18:53:42.741Z,15.50
2017-11-14T18:56:10.280Z,16.37
2017-11-14T18:58:37.839Z,17.45
2017-11-14T19:01:05.383Z,17.48
2017-11-14T19:03:32.963Z,17.73
2017-11-14T19:06:00.510Z,17.05
2017-11-14T19:08:28.083Z,17.85
2017-11-14T19:10:55.626Z,17.00
2017-11-14T19:13:23.196Z,19.95
2017-11-14T19:15:50.737Z,18.60
2017-11-14T19:18:18.281Z,19.30
2017-11-14T19:20:45.846Z,19.83
2017-11-14T19:23:13.398Z,18.45
2017-11-14T19:25:40.946Z,19.10
2017-11-14T19:28:08.522Z,18.80
2017-11-14T19:30:36.078Z,18.90
2017-11-14T19:33:03.610Z,19.00
2017-11-14T19:35:31.946Z,19.85
2017-11-14T19:37:59.481Z,23.30
2017-11-14T19:40:27.020Z,21.15
2017-11-14T19:42:55.366Z,21.52
2017-11-14T19:45:22.905Z,21.70
2017-11-14T19:47:50.965Z,19.87
2017-11-14T19:50:18.513Z,19.73
2017-11-14T19:52:46.061Z,21.75
2017-11-14T19:55:13.621Z,20.25
2017-11-14T19:57:41.177Z,20.88
2017-11-14T20:00:09.478Z,21.02
2017-11-14T20:02:37.101Z,19.08
2017-11-14T20:05:04.641Z,17.60
2017-11-14T20:07:32.191Z,17.05
2017-11-14T20:09:59.750Z,17.25
2017-11-14T20:12:27.287Z,17.10
2017-11-14T20:14:54.835Z,16.27
2017-11-14T20:17:22.385Z,16.55
2017-11-14T20:19:49.958Z,16.92
2017-11-14T20:22:17.489Z,19.15
2017-11-14T20:24:45.801Z,17.83
2017-11-14T20:27:20.695Z,16.62
2017-11-14T20:29:48.254Z,17.58
2017-11-14T20:32:15.785Z,17.33
2017-11-14T20:34:43.345Z,16.62
2017-11-14T20:37:10.885Z,18.05
2017-11-14T20:39:38.442Z,17.80
2017-11-14T20:42:05.966Z,19.35
2017-11-14T20:44:34.317Z,18.75
2017-11-14T20:47:01.858Z,18.20
2017-11-14T20:49:30.157Z,18.37
2017-11-14T20:51:57.718Z,18.90
2017-11-14T20:54:25.274Z,20.02
2017-11-14T20:56:52.827Z,20.58
2017-11-14T20:59:20.364Z,20.50
2017-11-14T21:01:47.923Z,22.00
2017-11-14T21:04:15.462Z,18.60
2017-11-14T21:06:43.774Z,21.73
2017-11-14T21:09:11.316Z,21.87
2017-11-14T21:11:38.881Z,22.85
2017-11-14T21:14:06.440Z,21.05
2017-11-14T21:16:33.998Z,20.98
2017-11-14T21:19:01.543Z,22.80
2017-11-14T21:21:29.094Z,23.10
2017-11-14T21:23:57.398Z,22.20
2017-11-14T21:26:25.007Z,24.45
2017-11-14T21:28:52.531Z,22.65
2017-11-14T21:31:20.138Z,23.58
2017-11-14T21:33:47.679Z,24.65
2017-11-14T21:36:15.249Z,23.58
2017-11-14T21:38:42.790Z,23.33
2017-11-14T21:41:10.362Z,24.67
2017-11-14T21:43:37.897Z,23.80
2017-11-14T21:46:05.433Z,23.55
2017-11-14T21:48:32.994Z,26.27
2017-11-14T21:51:00.534Z,23.92
2017-11-14T21:53:28.846Z,25.23
2017-11-14T21:55:56.394Z,24.35
2017-11-14T21:58:23.939Z,25.00
2017-11-14T22:00:52.233Z,23.38
2017-11-14T22:03:19.813Z,24.70
2017-11-14T22:05:47.353Z,24.20
2017-11-14T22:08:14.914Z,22.58
2017-11-14T22:10:42.450Z,23.77
2017-11-14T22:13:10.288Z,24.95
2017-11-14T22:15:38.747Z,24.35
2017-11-14T22:18:08.172Z,22.83
2017-11-14T22:20:40.100Z,23.70
2017-11-14T22:23:12.429Z,24.08
2017-11-14T22:25:40.522Z,22.90
2017-11-14T22:28:08.850Z,26.37
2017-11-14T22:30:37.412Z,25.27
2017-11-14T22:33:04.962Z,24.27
2017-11-14T22:35:32.505Z,23.58
2017-11-14T22:38:00.854Z,25.62
2017-11-14T22:40:28.390Z,24.50
2017-11-14T22:42:55.940Z,24.27
2017-11-14T22:45:23.486Z,25.42
2017-11-14T22:47:51.022Z,23.92
2017-11-14T22:50:19.352Z,24.60
2017-11-14T22:52:46.897Z,24.60
2017-11-14T22:55:14.458Z,25.15
2017-11-14T22:57:41.987Z,23.90
2017-11-14T23:00:10.306Z,25.00
2017-11-14T23:02:37.842Z,23.92
2017-11-14T23:05:05.419Z,22.87
2017-11-14T23:07:32.960Z,22.85
2017-11-14T23:10:00.501Z,22.80
2017-11-14T23:12:28.855Z,25.20
2017-11-14T23:14:56.388Z,23.60
2017-11-14T23:17:23.937Z,22.62
2017-11-14T23:19:52.242Z,25.20
2017-11-14T23:22:19.798Z,24.40
2017-11-14T23:24:47.346Z,22.70
2017-11-14T23:27:14.905Z,24.70
2017-11-14T23:29:42.448Z,24.50
2017-11-14T23:32:10.009Z,23.30
2017-11-14T23:34:37.542Z,24.85
2017-11-14T23:37:05.879Z,23.90
2017-11-14T23:39:33.422Z,23.42
2017-11-14T23:42:00.968Z,25.52
2017-11-14T23:44:28.508Z,23.80
2017-11-14T23:46:56.808Z,25.30
2017-11-14T23:49:24.370Z,21.87
2017-11-14T23:51:51.925Z,22.62
2017-11-14T23:54:19.485Z,24.37
2017-11-14T23:56:47.015Z,24.58
2017-11-14T23:59:14.557Z,25.17
